Time;durP1;ratioP1;P1;durP2;ratioP2;P2;SDS_P1;SDS_P2;PMS_P1;PMS_P2;Temp;Humidity;BMP_temperature;BMP_pressure;BME280_temperature;BME280_humidity;BME280_pressure;Samples;Min_cycle;Max_cycle;Signal;HPM_P1;HPM_P2
2024/01/28 00:01:56;;;;;;;37.60;20.20;;;;;;;0.77;83.05;102230.80;107605;1255;97788;-64
2024/01/28 00:04:24;;;;;;;35.00;20.00;;;;;;;0.77;83.07;102234.31;107574;1251;111576;-65
2024/01/28 00:06:53;;;;;;;33.80;19.20;;;;;;;0.80;83.40;102237.44;107625;1250;107395;-65
2024/01/28 00:09:21;;;;;;;31.40;18.50;;;;;;;0.79;83.45;102242.40;107572;1250;107109;-65
2024/01/28 00:11:50;;;;;;;39.20;21.30;;;;;;;0.77;83.61;102242.96;107537;1251;97831;-65
2024/01/28 00:14:18;;;;;;;33.70;19.90;;;;;;;0.75;83.80;102240.02;107577;1251;98350;-63
2024/01/28 00:16:48;;;;;;;39.90;20.70;;;;;;;0.73;83.74;102244.11;107617;1254;110593;-63
2024/01/28 00:19:17;;;;;;;36.30;21.60;;;;;;;0.74;83.84;102242.16;107586;1251;107974;-63
2024/01/28 00:21:45;;;;;;;33.80;20.10;;;;;;;0.71;83.73;102243.30;107613;1250;108370;-64
2024/01/28 00:24:14;;;;;;;32.80;20.90;;;;;;;0.72;83.94;102244.33;107623;1251;97820;-64
2024/01/28 00:26:42;;;;;;;37.50;22.70;;;;;;;0.70;83.97;102246.51;107604;1251;98338;-63
2024/01/28 00:29:11;;;;;;;35.70;23.00;;;;;;;0.67;83.86;102244.98;107584;1251;111870;-63
2024/01/28 00:31:39;;;;;;;38.00;23.80;;;;;;;0.66;83.93;102244.31;107534;1251;107992;-63
2024/01/28 00:34:08;;;;;;;36.90;22.40;;;;;;;0.68;84.11;102244.27;107564;1251;108493;-64
2024/01/28 00:36:36;;;;;;;36.30;22.70;;;;;;;0.73;84.31;102244.83;107663;1250;97925;-64
2024/01/28 00:39:05;;;;;;;40.40;22.60;;;;;;;0.78;84.74;102243.66;107649;1256;97713;-64
2024/01/28 00:41:33;;;;;;;40.50;23.50;;;;;;;0.85;84.96;102244.73;107634;1251;112264;-65
2024/01/28 00:44:05;;;;;;;37.80;22.30;;;;;;;0.87;84.36;102245.38;107634;1251;107146;-66
2024/01/28 00:46:34;;;;;;;35.40;22.80;;;;;;;0.90;84.60;102251.13;107646;1251;108458;-66
2024/01/28 00:49:03;;;;;;;33.50;19.50;;;;;;;0.95;84.80;102248.18;107573;1256;97844;-65
2024/01/28 00:51:32;;;;;;;33.30;20.80;;;;;;;1.02;84.76;102252.10;107668;1252;98442;-64
2024/01/28 00:54:00;;;;;;;33.20;20.20;;;;;;;1.08;84.93;102250.89;107582;1251;111818;-64
2024/01/28 00:56:29;;;;;;;34.50;21.10;;;;;;;1.11;84.37;102251.35;107575;1256;107007;-64
2024/01/28 00:58:57;;;;;;;31.60;18.80;;;;;;;1.13;84.48;102248.48;107548;1251;107764;-64
2024/01/28 01:01:25;;;;;;;30.90;19.00;;;;;;;1.15;84.30;102255.29;107574;1256;97883;-64
2024/01/28 01:03:54;;;;;;;32.30;19.50;;;;;;;1.17;84.58;102255.94;107574;1256;97710;-64
2024/01/28 01:06:22;;;;;;;26.70;17.10;;;;;;;1.20;84.70;102255.18;107624;1251;111072;-64
2024/01/28 01:08:50;;;;;;;26.80;18.50;;;;;;;1.23;84.45;102257.74;107641;1254;108323;-65
2024/01/28 01:11:19;;;;;;;26.90;16.50;;;;;;;1.24;84.27;102254.72;107543;1255;108085;-64
2024/01/28 01:13:50;;;;;;;24.30;16.20;;;;;;;1.25;84.11;102255.05;107577;1251;97822;-66
2024/01/28 01:16:18;;;;;;;25.10;15.30;;;;;;;1.22;84.04;102254.59;107617;1252;97790;-63
2024/01/28 01:18:46;;;;;;;26.50;14.60;;;;;;;1.20;83.84;102254.11;107620;1254;112039;-63
2024/01/28 01:21:15;;;;;;;23.40;14.80;;;;;;;1.19;83.80;102255.56;107608;1251;107460;-63
2024/01/28 01:23:44;;;;;;;22.30;13.70;;;;;;;1.21;84.04;102259.21;107545;1251;108180;-65
2024/01/28 01:26:13;;;;;;;21.20;13.90;;;;;;;1.24;84.35;102258.43;107578;1251;97901;-69
2024/01/28 01:28:42;;;;;;;22.90;14.30;;;;;;;1.26;84.42;102261.91;107584;1251;98363;-64
2024/01/28 01:31:10;;;;;;;19.40;13.40;;;;;;;1.28;84.74;102264.52;107568;1254;111121;-65
2024/01/28 01:33:38;;;;;;;17.80;12.40;;;;;;;1.28;84.40;102261.34;107620;1255;108229;-63
2024/01/28 01:36:07;;;;;;;19.00;13.00;;;;;;;1.27;84.47;102260.65;107545;1253;107876;-63
2024/01/28 01:38:36;;;;;;;20.30;13.10;;;;;;;1.29;84.31;102259.21;107602;1256;97825;-63
2024/01/28 01:41:04;;;;;;;20.70;12.40;;;;;;;1.30;84.07;102264.10;107581;1254;97854;-64
2024/01/28 01:43:33;;;;;;;16.50;11.00;;;;;;;1.30;84.08;102260.95;107585;1257;112134;-65
2024/01/28 01:46:01;;;;;;;18.70;11.60;;;;;;;1.27;83.46;102263.66;107559;1254;108324;-65
2024/01/28 01:48:29;;;;;;;15.70;10.40;;;;;;;1.25;83.43;102267.25;107548;1253;107362;-65
2024/01/28 01:50:58;;;;;;;15.60;11.00;;;;;;;1.26;83.78;102267.41;107572;1254;98493;-65
2024/01/28 01:53:27;;;;;;;15.60;10.50;;;;;;;1.26;83.56;102267.39;107556;1254;98364;-65
2024/01/28 01:55:56;;;;;;;16.20;10.60;;;;;;;1.24;83.63;102271.85;107661;1255;112258;-66
2024/01/28 01:58:24;;;;;;;17.20;10.80;;;;;;;1.24;83.66;102272.20;107619;1255;106894;-65
2024/01/28 02:00:55;;;;;;;16.80;11.50;;;;;;;1.28;83.70;102273.18;107585;1254;108163;-65
2024/01/28 02:03:23;;;;;;;18.20;11.70;;;;;;;1.28;83.60;102275.84;107590;1254;97831;-67
2024/01/28 02:05:52;;;;;;;18.50;11.10;;;;;;;1.25;83.20;102281.20;107605;1255;98370;-64
2024/01/28 02:08:20;;;;;;;15.30;9.70;;;;;;;1.19;82.80;102282.42;107595;1254;111168;-64
2024/01/28 02:10:49;;;;;;;16.30;9.80;;;;;;;1.19;83.31;102286.65;107578;1255;108703;-64
2024/01/28 02:13:17;;;;;;;13.20;9.60;;;;;;;1.20;83.54;102288.58;107587;1256;108301;-65
2024/01/28 02:15:46;;;;;;;13.80;9.10;;;;;;;1.21;83.56;102291.89;107572;1256;97822;-65
2024/01/28 02:18:14;;;;;;;16.40;10.10;;;;;;;1.23;83.50;102288.85;107607;1257;97819;-64
2024/01/28 02:20:43;;;;;;;15.80;9.60;;;;;;;1.24;83.45;102291.31;107521;1255;111526;-65
2024/01/28 02:23:16;;;;;;;14.50;9.20;;;;;;;1.25;83.55;102297.10;107559;1255;108352;-63
2024/01/28 02:25:44;;;;;;;12.00;9.60;;;;;;;1.28;83.38;102306.43;107548;1254;108571;-64
2024/01/28 02:28:13;;;;;;;16.40;10.70;;;;;;;1.23;83.08;102303.70;107564;1256;97845;-64
2024/01/28 02:30:41;;;;;;;22.00;11.60;;;;;;;1.21;83.00;102307.11;107652;1251;97745;-64
2024/01/28 02:33:10;;;;;;;21.70;11.60;;;;;;;1.20;83.16;102305.20;107566;1254;111802;-65
2024/01/28 02:35:38;;;;;;;26.00;11.50;;;;;;;1.21;83.23;102305.34;107647;1256;108884;-64
2024/01/28 02:38:07;;;;;;;17.30;10.80;;;;;;;1.24;83.48;102308.09;107591;1257;108228;-65
2024/01/28 02:40:35;;;;;;;23.50;12.90;;;;;;;1.26;83.52;102312.99;107602;1251;97838;-64
2024/01/28 02:43:05;;;;;;;23.50;12.00;;;;;;;1.21;82.94;102315.60;107597;1251;97739;-64
2024/01/28 02:45:34;;;;;;;17.00;11.80;;;;;;;1.19;82.99;102314.92;107560;1251;110224;-65
2024/01/28 02:48:02;;;;;;;20.60;12.40;;;;;;;1.20;82.89;102315.79;107538;1255;108508;-64
2024/01/28 02:50:31;;;;;;;16.10;11.30;;;;;;;1.23;83.32;102315.19;107484;1251;107295;-63
2024/01/28 02:52:59;;;;;;;20.60;12.20;;;;;;;1.28;83.65;102318.77;107555;1251;97725;-64
2024/01/28 02:55:27;;;;;;;23.10;12.10;;;;;;;1.31;83.47;102326.65;107526;1256;97824;-63
2024/01/28 02:57:55;;;;;;;22.60;12.80;;;;;;;1.33;83.62;102324.84;107576;1251;111176;-63
2024/01/28 03:00:23;;;;;;;18.20;13.00;;;;;;;1.33;83.50;102328.21;107534;1256;108367;-63
2024/01/28 03:02:52;;;;;;;22.20;12.40;;;;;;;1.31;83.57;102336.54;107526;1251;107376;-64
2024/01/28 03:05:20;;;;;;;21.60;11.60;;;;;;;1.31;83.69;102340.98;107524;1255;97819;-66
2024/01/28 03:07:48;;;;;;;17.00;11.70;;;;;;;1.30;83.20;102340.84;107572;1251;98463;-66
2024/01/28 03:10:17;;;;;;;19.40;12.70;;;;;;;1.30;83.22;102344.39;107553;1254;111948;-65
2024/01/28 03:12:49;;;;;;;18.80;12.60;;;;;;;1.31;83.31;102348.59;107565;1256;108648;-63
2024/01/28 03:15:19;;;;;;;21.30;13.30;;;;;;;1.31;83.17;102351.23;107550;1256;107711;-64
2024/01/28 03:17:47;;;;;;;21.50;12.00;;;;;;;1.33;83.19;102357.02;107594;1250;97842;-64
2024/01/28 03:20:19;;;;;;;19.10;12.10;;;;;;;1.34;83.05;102353.99;107576;1251;97926;-63
2024/01/28 03:22:47;;;;;;;22.50;12.20;;;;;;;1.35;83.21;102353.08;107545;1251;111111;-62
2024/01/28 03:25:16;;;;;;;21.90;12.10;;;;;;;1.37;83.23;102360.98;107523;1251;107725;-63
2024/01/28 03:27:44;;;;;;;17.90;11.70;;;;;;;1.38;83.27;102362.91;107604;1251;106381;-64
2024/01/28 03:30:14;;;;;;;17.90;11.40;;;;;;;1.37;83.12;102368.07;107521;1251;97837;-65
2024/01/28 03:32:43;;;;;;;17.80;10.80;;;;;;;1.35;83.70;102369.51;107561;1251;97761;-63
2024/01/28 03:35:12;;;;;;;17.00;10.10;;;;;;;1.35;83.70;102372.19;107483;1250;111790;-63
2024/01/28 03:37:40;;;;;;;17.70;11.20;;;;;;;1.32;83.60;102374.71;107514;1251;107706;-63
2024/01/28 03:40:09;;;;;;;17.40;11.90;;;;;;;1.29;83.39;102375.87;107477;1251;106888;-64
2024/01/28 03:42:37;;;;;;;16.70;11.10;;;;;;;1.24;83.29;102377.04;107542;1251;97766;-65
2024/01/28 03:45:07;;;;;;;15.70;10.30;;;;;;;1.22;83.67;102377.77;107545;1251;98370;-65
2024/01/28 03:47:36;;;;;;;15.60;9.80;;;;;;;1.22;83.36;102378.65;107498;1251;111204;-65
2024/01/28 03:50:05;;;;;;;13.90;9.30;;;;;;;1.23;83.45;102380.41;107559;1254;107282;-65
2024/01/28 03:52:34;;;;;;;14.30;9.50;;;;;;;1.22;83.31;102379.36;107564;1251;107145;-65
2024/01/28 03:55:03;;;;;;;16.60;10.00;;;;;;;1.23;83.54;102380.40;107515;1251;98004;-63
2024/01/28 03:57:31;;;;;;;14.40;9.80;;;;;;;1.21;83.27;102386.81;107511;1251;97914;-65
2024/01/28 03:59:59;;;;;;;13.40;10.10;;;;;;;1.18;83.08;102394.84;107517;1254;110787;-67
2024/01/28 04:02:28;;;;;;;12.80;9.40;;;;;;;1.19;83.07;102402.06;107481;1251;108260;-63
2024/01/28 04:04:57;;;;;;;15.60;9.70;;;;;;;1.17;82.90;102405.63;107505;1251;107206;-64
2024/01/28 04:07:25;;;;;;;15.40;10.00;;;;;;;1.16;83.00;102406.73;107490;1251;97709;-64
2024/01/28 04:09:53;;;;;;;14.80;9.30;;;;;;;1.11;82.90;102412.83;107500;1251;97822;-64
2024/01/28 04:12:22;;;;;;;13.40;9.80;;;;;;;1.05;82.57;102414.92;107505;1254;111723;-64
2024/01/28 04:14:51;;;;;;;12.60;9.60;;;;;;;1.03;82.81;102415.69;107544;1251;108011;-64
2024/01/28 04:17:19;;;;;;;12.80;8.80;;;;;;;1.00;82.52;102420.15;107549;1251;108085;-64
2024/01/28 04:19:47;;;;;;;16.40;10.20;;;;;;;0.99;82.69;102424.23;107566;1254;97860;-64
2024/01/28 04:22:16;;;;;;;20.70;9.80;;;;;;;1.03;83.08;102424.87;107535;1251;98370;-64
2024/01/28 04:24:44;;;;;;;14.10;10.00;;;;;;;1.05;83.12;102423.75;107569;1251;111284;-63
2024/01/28 04:27:13;;;;;;;15.60;10.50;;;;;;;1.07;83.19;102429.90;107528;1251;107297;-65
2024/01/28 04:29:44;;;;;;;14.40;9.80;;;;;;;1.11;83.39;102425.73;107554;1251;108331;-62
2024/01/28 04:32:14;;;;;;;15.90;10.60;;;;;;;1.17;83.40;102430.39;107548;1251;97919;-62
2024/01/28 04:34:43;;;;;;;14.50;10.20;;;;;;;1.16;83.38;102431.10;107567;1251;97928;-63
2024/01/28 04:37:12;;;;;;;17.20;9.70;;;;;;;1.14;83.02;102435.23;107605;1254;112329;-63
2024/01/28 04:39:40;;;;;;;15.80;10.80;;;;;;;1.13;83.39;102439.31;107586;1251;108443;-63
2024/01/28 04:42:08;;;;;;;13.50;9.70;;;;;;;1.14;83.09;102448.31;107538;1251;108183;-64
2024/01/28 04:44:36;;;;;;;15.20;10.00;;;;;;;1.15;83.15;102447.23;107542;1251;97822;-64
2024/01/28 04:47:06;;;;;;;15.40;10.00;;;;;;;1.17;83.21;102452.66;107598;1251;98366;-65
2024/01/28 04:49:34;;;;;;;20.50;13.00;;;;;;;1.17;82.88;102463.08;107631;1254;111154;-64
2024/01/28 04:52:03;;;;;;;16.20;11.00;;;;;;;1.17;82.78;102470.67;107598;1251;108385;-65
2024/01/28 04:54:32;;;;;;;17.50;11.10;;;;;;;1.10;82.30;102472.78;107628;1251;107944;-63
2024/01/28 04:57:02;;;;;;;16.00;11.70;;;;;;;1.04;82.08;102472.91;107602;1251;97830;-64
2024/01/28 04:59:30;;;;;;;15.80;10.30;;;;;;;1.02;82.23;102469.95;107653;1251;97713;-63
2024/01/28 05:01:59;;;;;;;16.30;11.10;;;;;;;1.04;82.66;102471.14;107616;1254;111109;-63
2024/01/28 05:04:27;;;;;;;16.10;10.90;;;;;;;1.05;82.65;102474.11;107622;1251;107976;-64
2024/01/28 05:06:56;;;;;;;17.00;10.40;;;;;;;1.04;82.74;102476.78;107566;1254;106979;-64
2024/01/28 05:09:24;;;;;;;13.80;10.70;;;;;;;1.06;82.70;102469.86;107568;1251;97944;-64
2024/01/28 05:11:53;;;;;;;19.90;10.80;;;;;;;1.09;82.88;102472.96;107572;1251;97853;-63
2024/01/28 05:14:21;;;;;;;18.30;11.30;;;;;;;1.12;83.11;102474.48;107591;1251;111432;-64
2024/01/28 05:16:50;;;;;;;16.00;10.50;;;;;;;1.10;82.75;102486.55;107583;1251;108497;-63
2024/01/28 05:19:18;;;;;;;16.30;10.90;;;;;;;1.08;82.80;102487.13;107604;1251;108066;-64
2024/01/28 05:21:47;;;;;;;15.20;9.80;;;;;;;1.08;83.13;102487.66;107556;1251;97835;-64
2024/01/28 05:24:15;;;;;;;17.00;10.60;;;;;;;1.07;82.76;102486.98;107576;1251;98389;-65
2024/01/28 05:26:44;;;;;;;17.90;10.90;;;;;;;1.06;82.84;102488.05;107633;1254;111374;-63
2024/01/28 05:29:12;;;;;;;20.50;10.70;;;;;;;1.07;82.49;102492.98;107585;1251;108865;-64
2024/01/28 05:31:40;;;;;;;17.10;11.60;;;;;;;1.08;82.91;102499.14;107550;1251;108827;-64
2024/01/28 05:34:09;;;;;;;17.70;10.90;;;;;;;1.08;82.81;102504.27;107616;1251;97822;-64
2024/01/28 05:36:37;;;;;;;18.20;11.00;;;;;;;1.10;82.88;102514.14;107599;1251;97825;-64
2024/01/28 05:39:05;;;;;;;18.00;11.00;;;;;;;1.11;83.06;102522.24;107577;1251;111308;-63
2024/01/28 05:41:33;;;;;;;16.30;11.10;;;;;;;1.11;82.78;102526.82;107617;1251;108662;-63
2024/01/28 05:44:02;;;;;;;17.10;11.70;;;;;;;1.09;82.44;102520.69;107567;1251;107850;-63
2024/01/28 05:46:30;;;;;;;20.50;12.70;;;;;;;1.04;82.43;102523.27;107543;1254;97838;-62
2024/01/28 05:48:59;;;;;;;21.00;12.30;;;;;;;1.03;82.94;102533.00;107602;1254;98018;-63
2024/01/28 05:51:27;;;;;;;22.00;13.00;;;;;;;1.02;82.55;102532.48;107630;1251;111425;-62
2024/01/28 05:53:56;;;;;;;20.60;13.40;;;;;;;1.00;82.66;102534.84;107597;1251;108484;-63
2024/01/28 05:56:24;;;;;;;21.60;13.30;;;;;;;0.97;82.50;102538.61;107525;1251;108813;-64
2024/01/28 05:58:52;;;;;;;20.40;13.00;;;;;;;0.96;82.39;102550.98;107504;1251;97815;-64
2024/01/28 06:01:21;;;;;;;22.90;13.40;;;;;;;0.99;82.80;102564.71;107570;1251;97726;-64
2024/01/28 06:03:49;;;;;;;17.70;11.90;;;;;;;1.01;82.62;102571.20;107550;1251;110946;-63
2024/01/28 06:06:18;;;;;;;18.00;12.60;;;;;;;1.00;82.43;102577.23;107534;1251;108113;-64
2024/01/28 06:08:46;;;;;;;17.70;11.70;;;;;;;1.00;82.40;102579.52;107500;1254;107743;-65
2024/01/28 06:11:14;;;;;;;20.20;13.00;;;;;;;0.97;82.49;102589.13;107482;1251;97928;-65
2024/01/28 06:13:43;;;;;;;23.00;13.50;;;;;;;0.96;82.65;102594.79;107528;1254;97925;-64
2024/01/28 06:16:11;;;;;;;19.70;13.10;;;;;;;0.93;82.54;102592.39;107506;1251;111091;-64
2024/01/28 06:18:43;;;;;;;20.40;13.10;;;;;;;0.91;82.08;102586.93;107488;1251;108474;-63
2024/01/28 06:21:13;;;;;;;19.60;12.40;;;;;;;0.88;82.49;102588.57;107394;1254;107501;-63
2024/01/28 06:23:42;;;;;;;22.10;13.40;;;;;;;0.88;82.31;102589.98;107459;1251;97962;-62
2024/01/28 06:26:10;;;;;;;20.80;12.90;;;;;;;0.87;82.30;102596.02;107476;1251;97825;-64
2024/01/28 06:28:39;;;;;;;21.50;13.60;;;;;;;0.87;82.19;102593.90;107480;1251;112484;-62
2024/01/28 06:31:07;;;;;;;21.00;12.80;;;;;;;0.88;82.12;102591.23;107448;1251;108494;-63
2024/01/28 06:33:35;;;;;;;21.70;12.40;;;;;;;0.92;82.49;102592.92;107564;1251;108376;-66
2024/01/28 06:36:05;;;;;;;22.90;13.40;;;;;;;0.93;82.30;102587.77;107459;1251;97816;-64
2024/01/28 06:38:33;;;;;;;21.30;12.50;;;;;;;0.94;82.24;102585.45;107513;1251;97828;-64
2024/01/28 06:41:01;;;;;;;20.60;13.10;;;;;;;0.97;82.39;102587.71;107483;1251;111444;-64
2024/01/28 06:43:30;;;;;;;18.80;12.80;;;;;;;1.00;82.55;102591.89;107479;1250;107193;-64
2024/01/28 06:45:59;;;;;;;20.70;12.00;;;;;;;1.05;82.37;102597.64;107464;1251;107149;-64
2024/01/28 06:48:28;;;;;;;27.40;13.40;;;;;;;1.09;82.48;102606.39;107507;1254;97843;-64
2024/01/28 06:50:57;;;;;;;25.00;14.10;;;;;;;1.15;82.53;102616.71;107454;1251;97839;-65
2024/01/28 06:53:25;;;;;;;18.80;12.90;;;;;;;1.19;82.52;102625.45;107562;1251;111708;-65
2024/01/28 06:55:54;;;;;;;20.60;11.80;;;;;;;1.24;82.32;102632.41;107521;1251;108261;-64
2024/01/28 06:58:22;;;;;;;22.50;13.30;;;;;;;1.26;82.04;102634.35;107559;1254;108025;-65
2024/01/28 07:00:51;;;;;;;20.20;11.70;;;;;;;1.26;81.79;102643.71;107435;1251;98369;-64
2024/01/28 07:03:19;;;;;;;18.80;12.60;;;;;;;1.32;82.16;102650.48;107452;1250;97794;-64
2024/01/28 07:05:48;;;;;;;19.50;11.60;;;;;;;1.34;81.97;102651.34;107480;1251;111430;-63
2024/01/28 07:08:16;;;;;;;18.50;11.90;;;;;;;1.32;81.28;102647.84;107480;1251;107772;-63
2024/01/28 07:10:44;;;;;;;18.40;11.50;;;;;;;1.29;81.16;102653.58;107459;1251;108513;-66
2024/01/28 07:13:13;;;;;;;20.80;13.80;;;;;;;1.28;81.44;102646.50;107455;1251;97819;-64
2024/01/28 07:15:41;;;;;;;20.00;12.00;;;;;;;1.29;81.14;102655.31;107439;1251;97835;-66
2024/01/28 07:18:09;;;;;;;20.90;13.10;;;;;;;1.26;80.88;102657.49;107491;1251;111296;-63
2024/01/28 07:20:38;;;;;;;21.10;13.30;;;;;;;1.17;80.57;102662.44;107442;1251;108600;-62
2024/01/28 07:23:06;;;;;;;18.40;11.70;;;;;;;1.13;80.49;102658.09;107487;1254;107649;-63
2024/01/28 07:25:34;;;;;;;18.40;12.90;;;;;;;1.15;81.03;102660.19;107486;1251;97844;-64
2024/01/28 07:28:03;;;;;;;22.50;13.30;;;;;;;1.21;81.03;102663.06;107542;1251;98349;-64
2024/01/28 07:30:32;;;;;;;20.10;13.10;;;;;;;1.23;80.95;102664.45;107501;1250;111569;-62
2024/01/28 07:33:01;;;;;;;22.10;13.40;;;;;;;1.31;80.93;102661.64;107474;1251;108214;-63
2024/01/28 07:35:29;;;;;;;19.50;13.10;;;;;;;1.38;81.22;102660.81;107442;1251;108079;-63
2024/01/28 07:37:58;;;;;;;21.20;13.20;;;;;;;1.45;80.93;102663.14;107463;1251;97860;-64
2024/01/28 07:40:26;;;;;;;20.60;14.20;;;;;;;1.53;80.86;102666.50;107490;1251;97841;-63
2024/01/28 07:42:55;;;;;;;22.40;13.40;;;;;;;1.60;81.03;102670.45;107441;1251;111769;-64
2024/01/28 07:45:24;;;;;;;22.20;14.30;;;;;;;1.62;79.96;102679.07;107513;1253;107651;-65
2024/01/28 07:47:52;;;;;;;22.90;14.20;;;;;;;1.64;80.45;102678.33;107633;1256;108489;-64
2024/01/28 07:50:21;;;;;;;24.90;14.60;;;;;;;1.77;80.99;102682.14;107541;1251;97902;-65
2024/01/28 07:52:49;;;;;;;23.30;14.30;;;;;;;1.91;81.04;102680.95;107528;1251;97872;-64
2024/01/28 07:55:18;;;;;;;23.20;13.80;;;;;;;2.02;80.71;102688.13;107476;1251;111175;-63
2024/01/28 07:57:46;;;;;;;37.30;19.50;;;;;;;2.03;79.67;102696.44;107466;1250;107849;-63
2024/01/28 08:00:15;;;;;;;32.60;18.10;;;;;;;1.98;79.19;102706.45;107499;1251;107068;-64
2024/01/28 08:02:44;;;;;;;28.40;14.30;;;;;;;1.99;79.27;102705.91;107530;1251;97822;-64
2024/01/28 08:05:12;;;;;;;24.30;14.10;;;;;;;2.02;78.83;102704.95;107516;1251;97835;-64
2024/01/28 08:07:41;;;;;;;33.60;17.00;;;;;;;2.01;78.60;102710.27;107484;1251;111096;-65
2024/01/28 08:10:09;;;;;;;29.30;15.30;;;;;;;2.05;78.74;102709.15;107483;1251;108335;-64
2024/01/28 08:12:37;;;;;;;27.70;14.80;;;;;;;2.13;78.71;102708.79;107472;1250;108432;-63
2024/01/28 08:15:06;;;;;;;23.10;13.60;;;;;;;2.28;79.06;102717.51;107468;1251;97841;-63
2024/01/28 08:17:35;;;;;;;20.50;11.90;;;;;;;2.40;78.82;102715.80;107523;1250;97710;-64
2024/01/28 08:20:05;;;;;;;26.10;15.60;;;;;;;2.52;78.66;102716.61;107460;1251;111773;-64
2024/01/28 08:22:33;;;;;;;23.70;14.50;;;;;;;2.62;78.48;102721.84;107513;1251;108842;-64
2024/01/28 08:25:02;;;;;;;23.10;14.50;;;;;;;2.62;77.54;102727.69;107488;1251;108120;-65
2024/01/28 08:27:31;;;;;;;20.30;12.80;;;;;;;2.69;78.02;102727.71;107451;1254;97866;-65
2024/01/28 08:29:59;;;;;;;25.80;15.30;;;;;;;2.62;76.69;102732.28;107522;1251;97722;-64
2024/01/28 08:32:28;;;;;;;21.90;13.80;;;;;;;2.61;76.94;102741.91;107501;1251;111786;-65
2024/01/28 08:34:56;;;;;;;24.80;15.00;;;;;;;2.68;77.20;102741.38;107502;1254;108340;-66
2024/01/28 08:37:25;;;;;;;21.40;13.60;;;;;;;2.79;77.43;102745.71;107585;1256;107797;-64
2024/01/28 08:39:53;;;;;;;24.00;14.10;;;;;;;2.84;76.45;102754.83;107631;1256;97854;-65
2024/01/28 08:42:22;;;;;;;21.30;14.20;;;;;;;2.83;76.14;102755.36;107633;1251;98388;-65
2024/01/28 08:44:50;;;;;;;33.20;17.60;;;;;;;2.84;75.95;102761.73;107266;1251;365991;-64
2024/01/28 08:47:18;;;;;;;26.00;15.80;;;;;;;2.87;75.99;102766.64;107522;1250;108086;-64
2024/01/28 08:49:48;;;;;;;25.20;15.10;;;;;;;2.84;75.70;102772.55;107607;1256;107537;-64
2024/01/28 08:52:19;;;;;;;23.80;13.00;;;;;;;2.87;76.06;102774.25;107494;1251;97880;-63
2024/01/28 08:54:47;;;;;;;25.10;15.20;;;;;;;2.93;76.05;102782.61;107520;1251;98383;-64
2024/01/28 08:57:16;;;;;;;26.00;15.80;;;;;;;2.97;76.08;102790.30;107524;1251;111969;-63
2024/01/28 08:59:44;;;;;;;28.40;15.30;;;;;;;2.93;74.99;102790.58;107526;1251;107912;-64
2024/01/28 09:02:13;;;;;;;27.30;16.20;;;;;;;2.92;75.31;102789.54;107522;1251;107233;-64
2024/01/28 09:04:41;;;;;;;27.40;15.80;;;;;;;3.01;75.60;102793.23;107560;1251;97822;-65
2024/01/28 09:07:10;;;;;;;23.50;14.90;;;;;;;3.17;74.74;102795.31;107648;1251;98351;-64
2024/01/28 09:09:38;;;;;;;21.90;13.80;;;;;;;3.30;74.67;102802.27;107597;1252;111404;-64
2024/01/28 09:12:07;;;;;;;22.70;13.70;;;;;;;3.39;74.33;102808.59;107620;1254;108453;-65
2024/01/28 09:14:36;;;;;;;15.40;11.20;;;;;;;3.43;73.99;102809.04;107563;1251;107976;-65
2024/01/28 09:17:04;;;;;;;20.80;12.80;;;;;;;3.44;74.54;102809.73;107642;1251;97955;-65
2024/01/28 09:19:32;;;;;;;22.50;13.10;;;;;;;3.49;75.02;102817.74;107569;1251;97832;-64
2024/01/28 09:22:02;;;;;;;19.20;12.10;;;;;;;3.52;74.47;102817.84;107543;1251;111759;-64
2024/01/28 09:24:30;;;;;;;22.70;11.90;;;;;;;3.51;73.89;102819.66;107609;1254;107984;-64
2024/01/28 09:26:59;;;;;;;27.90;12.50;;;;;;;3.46;73.50;102821.02;107614;1255;107547;-64
2024/01/28 09:29:30;;;;;;;18.60;11.80;;;;;;;3.42;73.56;102822.89;107533;1251;97823;-63
2024/01/28 09:31:59;;;;;;;20.10;13.50;;;;;;;3.41;73.70;102821.13;107584;1251;97822;-64
2024/01/28 09:34:28;;;;;;;19.90;13.10;;;;;;;3.35;73.16;102821.48;107571;1251;112250;-63
2024/01/28 09:36:56;;;;;;;19.00;13.00;;;;;;;3.31;73.29;102823.88;107571;1254;107434;-65
2024/01/28 09:39:25;;;;;;;23.00;13.50;;;;;;;3.39;73.78;102819.42;107544;1251;106927;-65
2024/01/28 09:42:16;;;;;;;21.50;13.60;;;;;;;3.56;74.01;102819.88;107599;1251;97708;-67
2024/01/28 09:44:45;;;;;;;18.80;12.20;;;;;;;3.84;73.36;102809.19;107610;1251;97748;-65
2024/01/28 09:47:15;;;;;;;18.20;12.50;;;;;;;4.61;72.91;102806.25;107619;1250;109250;-65
2024/01/28 09:49:44;;;;;;;19.30;13.30;;;;;;;5.78;71.30;102802.39;107614;1251;107959;-64
2024/01/28 09:52:16;;;;;;;18.90;12.60;;;;;;;6.29;70.23;102804.50;107598;1251;107142;-64
2024/01/28 09:54:45;;;;;;;19.20;13.60;;;;;;;6.36;69.36;102801.20;107543;1251;97962;-64
2024/01/28 09:57:15;;;;;;;18.50;12.80;;;;;;;7.03;67.41;102799.10;107568;1251;97816;-65
2024/01/28 09:59:45;;;;;;;15.90;11.70;;;;;;;7.35;66.14;102799.20;107556;1251;111707;-64
2024/01/28 10:02:16;;;;;;;15.60;11.10;;;;;;;7.11;65.20;102805.90;107571;1251;107509;-64
2024/01/28 10:04:47;;;;;;;16.90;11.50;;;;;;;6.46;63.40;102809.00;107543;1254;108616;-65
2024/01/28 10:07:16;;;;;;;14.70;11.30;;;;;;;6.05;63.15;102809.84;107514;1250;97864;-65
2024/01/28 10:09:45;;;;;;;16.40;11.40;;;;;;;6.00;63.65;102817.30;107558;1251;97844;-64
2024/01/28 10:12:13;;;;;;;15.50;11.90;;;;;;;5.65;64.59;102821.54;107596;1251;110805;-66
2024/01/28 10:14:50;;;;;;;26.80;17.80;;;;;;;5.47;63.88;102822.36;107552;1251;107708;-64
2024/01/28 10:17:22;;;;;;;27.20;16.80;;;;;;;5.20;64.60;102829.30;107554;1251;108845;-65
2024/01/28 10:19:50;;;;;;;13.20;10.20;;;;;;;4.96;64.29;102828.83;107597;1254;97873;-65
2024/01/28 10:22:18;;;;;;;18.50;13.00;;;;;;;4.62;64.68;102832.89;107527;1251;97704;-64
2024/01/28 10:24:47;;;;;;;20.20;13.90;;;;;;;4.36;65.08;102837.75;107552;1250;110870;-66
2024/01/28 10:27:15;;;;;;;19.40;13.80;;;;;;;4.24;65.58;102848.40;107585;1251;107938;-64
2024/01/28 10:29:45;;;;;;;22.10;14.50;;;;;;;4.17;66.13;102845.75;107525;1251;107143;-65
2024/01/28 10:32:13;;;;;;;22.00;13.40;;;;;;;4.06;66.30;102850.66;107536;1253;98400;-64
2024/01/28 10:34:41;;;;;;;19.70;13.60;;;;;;;4.00;66.67;102852.95;107658;1251;97720;-65
2024/01/28 10:37:14;;;;;;;19.80;13.80;;;;;;;3.91;67.07;102859.23;107590;1251;111667;-65
2024/01/28 10:39:45;;;;;;;25.60;12.90;;;;;;;3.77;67.41;102865.64;107647;1251;109175;-64
2024/01/28 10:42:19;;;;;;;18.60;12.60;;;;;;;3.69;67.51;102864.08;107553;1251;108597;-63
2024/01/28 10:44:52;;;;;;;17.30;13.00;;;;;;;3.59;67.72;102866.27;107525;1251;97992;-64
2024/01/28 10:47:26;;;;;;;22.50;12.70;;;;;;;3.51;68.12;102868.61;107614;1251;97842;-66
2024/01/28 10:49:59;;;;;;;19.80;11.80;;;;;;;3.49;67.92;102871.15;107569;1251;111234;-65
2024/01/28 10:52:29;;;;;;;21.80;13.10;;;;;;;3.47;67.78;102871.00;107595;1251;107257;-66
2024/01/28 10:55:00;;;;;;;18.90;13.10;;;;;;;3.52;67.87;102870.73;107584;1251;107858;-65
2024/01/28 10:57:30;;;;;;;21.10;12.80;;;;;;;3.70;68.19;102870.63;107647;1251;97838;-63
2024/01/28 11:00:00;;;;;;;21.70;13.20;;;;;;;3.97;68.16;102872.75;107611;1251;97708;-65
2024/01/28 11:02:29;;;;;;;20.20;13.40;;;;;;;4.25;67.82;102869.16;107643;1250;110789;-64
2024/01/28 11:05:02;;;;;;;21.40;14.90;;;;;;;4.28;67.85;102870.11;107550;1251;107637;-65
2024/01/28 11:07:31;;;;;;;29.40;13.00;;;;;;;4.28;67.39;102872.96;107497;1251;108547;-64
2024/01/28 11:09:59;;;;;;;20.10;13.80;;;;;;;4.31;67.67;102875.18;107534;1250;97842;-64
2024/01/28 11:12:28;;;;;;;20.70;13.60;;;;;;;4.32;67.91;102876.76;107559;1250;97796;-65